Time;durP1;ratioP1;P1;durP2;ratioP2;P2;SDS_P1;SDS_P2;PMS_P1;PMS_P2;Temp;Humidity;BMP_temperature;BMP_pressure;BME280_temperature;BME280_humidity;BME280_pressure;Samples;Min_cycle;Max_cycle;Signal;HPM_P1;HPM_P2
2023/10/26 01:55:50;;;;;;;16.52;9.52;;;;;;;12.88;79.80;97793.78;6321489;22;20026;-93
2023/10/26 01:58:15;;;;;;;22.30;9.73;;;;;;;12.86;79.97;97795.25;6306764;22;20274;-92
2023/10/26 02:00:41;;;;;;;18.67;10.38;;;;;;;12.94;79.66;97792.47;6309049;22;20014;-93
2023/10/26 02:03:06;;;;;;;16.92;9.52;;;;;;;13.06;79.76;97796.44;6335295;22;20479;-93
2023/10/26 02:05:32;;;;;;;15.05;9.00;;;;;;;13.05;79.66;97798.41;6305123;22;20007;-91
2023/10/26 02:07:57;;;;;;;15.73;10.20;;;;;;;13.01;79.66;97786.50;6332566;22;20007;-93
2023/10/26 02:10:29;;;;;;;13.73;8.52;;;;;;;13.11;79.32;97796.28;6304006;22;20011;-93
2023/10/26 02:12:55;;;;;;;14.18;7.78;;;;;;;13.07;79.51;97795.31;6331998;22;20011;-94
2023/10/26 02:15:21;;;;;;;13.07;7.50;;;;;;;12.95;78.94;97805.03;6333095;22;20046;-93
2023/10/26 02:17:46;;;;;;;14.52;7.97;;;;;;;13.11;79.13;97800.94;6331357;22;20003;-92
2023/10/26 02:20:11;;;;;;;13.27;7.75;;;;;;;13.20;79.05;97809.88;6304142;22;20006;-93
2023/10/26 02:22:37;;;;;;;12.85;8.02;;;;;;;13.17;78.98;97811.38;6331789;22;20011;-92
2023/10/26 02:25:02;;;;;;;14.27;8.35;;;;;;;13.14;78.86;97806.53;6331524;22;20348;-92
2023/10/26 02:27:27;;;;;;;13.35;8.15;;;;;;;13.22;78.26;97813.09;6304339;22;20063;-93
2023/10/26 02:29:53;;;;;;;15.93;8.75;;;;;;;13.12;78.53;97824.44;6332516;22;20014;-93
2023/10/26 02:32:18;;;;;;;15.50;8.33;;;;;;;13.23;78.14;97831.13;6331787;22;20007;-92
2023/10/26 02:34:43;;;;;;;18.02;9.63;;;;;;;13.12;77.94;97825.22;6332401;22;20681;-92
2023/10/26 02:37:09;;;;;;;18.80;12.53;;;;;;;13.15;78.44;97830.03;6333079;22;20506;-93
2023/10/26 02:39:34;;;;;;;13.90;8.80;;;;;;;13.16;78.10;97826.16;6305837;22;20232;-92
2023/10/26 02:41:59;;;;;;;14.80;9.00;;;;;;;13.13;78.20;97832.31;6333179;22;20090;-94
2023/10/26 02:44:25;;;;;;;19.83;11.65;;;;;;;12.96;79.34;97833.97;6333347;22;20347;-92
2023/10/26 02:46:50;;;;;;;20.60;10.18;;;;;;;13.07;78.54;97831.69;6333691;22;20010;-93
2023/10/26 02:49:15;;;;;;;20.23;11.95;;;;;;;13.07;78.53;97839.91;6332590;22;20082;-94
2023/10/26 02:51:40;;;;;;;18.50;11.13;;;;;;;13.05;78.41;97841.34;6333542;22;20026;-94
2023/10/26 02:54:06;;;;;;;18.42;11.15;;;;;;;13.13;78.14;97837.78;6333020;22;20089;-93
2023/10/26 02:56:31;;;;;;;18.55;11.68;;;;;;;13.18;78.04;97839.53;6332660;22;20042;-92
2023/10/26 02:58:56;;;;;;;19.38;11.95;;;;;;;13.26;77.69;97840.63;6333081;22;20021;-92
2023/10/26 03:01:22;;;;;;;20.63;13.00;;;;;;;13.14;77.70;97844.84;6333091;22;20336;-92
2023/10/26 03:03:47;;;;;;;18.35;11.82;;;;;;;12.90;78.82;97840.75;6332934;22;20223;-92
2023/10/26 03:06:12;;;;;;;18.27;11.73;;;;;;;12.73;79.59;97845.16;6305930;22;20030;-92
2023/10/26 03:08:38;;;;;;;15.88;9.73;;;;;;;12.66;79.92;97842.13;6332850;22;20223;-94
2023/10/26 03:11:03;;;;;;;16.52;9.13;;;;;;;12.67;80.07;97837.47;6333217;22;20059;-93
2023/10/26 03:13:29;;;;;;;18.75;11.00;;;;;;;12.63;79.97;97848.22;6331818;22;20007;-92
2023/10/26 03:15:54;;;;;;;18.75;11.38;;;;;;;12.67;80.39;97851.91;6305023;22;20531;-93
2023/10/26 03:18:20;;;;;;;19.25;10.70;;;;;;;12.61;80.57;97848.56;6331321;22;20326;-93
2023/10/26 03:20:45;;;;;;;17.90;11.52;;;;;;;13.04;78.97;97851.47;6332860;22;20003;-93
2023/10/26 03:23:11;;;;;;;19.58;11.75;;;;;;;12.97;78.56;97845.72;6332346;22;20022;-93
2023/10/26 03:25:36;;;;;;;25.90;12.75;;;;;;;13.23;78.23;97852.22;6306301;22;20056;-93
2023/10/26 03:28:01;;;;;;;17.63;10.57;;;;;;;13.13;77.69;97850.66;6332495;22;20002;-93
2023/10/26 03:30:27;;;;;;;17.85;11.13;;;;;;;13.15;78.01;97846.47;6332447;22;20017;-92
2023/10/26 03:32:53;;;;;;;17.55;10.60;;;;;;;13.30;77.57;97858.75;6331751;22;20007;-92
2023/10/26 03:35:19;;;;;;;22.73;13.25;;;;;;;13.03;78.45;97854.56;6332368;22;20402;-91
2023/10/26 03:37:45;;;;;;;20.13;11.02;;;;;;;13.12;78.40;97854.53;6332653;22;20007;-92
2023/10/26 03:40:13;;;;;;;23.75;12.25;;;;;;;13.01;78.29;97859.56;6331850;22;20086;-92
2023/10/26 03:42:38;;;;;;;20.77;12.30;;;;;;;13.07;78.31;97850.03;6332754;22;20314;-93
2023/10/26 03:45:04;;;;;;;21.02;13.73;;;;;;;12.95;78.56;97848.81;6332259;22;20025;-91
2023/10/26 03:47:29;;;;;;;18.92;11.32;;;;;;;13.13;78.13;97854.19;6304898;22;20018;-93
2023/10/26 03:49:54;;;;;;;19.42;10.85;;;;;;;13.01;78.47;97852.16;6332921;22;20045;-91
2023/10/26 03:52:21;;;;;;;16.20;11.00;;;;;;;13.03;78.30;97849.09;6332131;22;20022;-91
2023/10/26 03:54:47;;;;;;;17.92;11.93;;;;;;;13.13;77.77;97851.47;6332409;22;20436;-92
2023/10/26 03:57:13;;;;;;;17.92;11.68;;;;;;;13.10;77.95;97852.09;6333069;22;20072;-92
2023/10/26 03:59:38;;;;;;;17.08;10.38;;;;;;;13.19;78.08;97847.41;6305029;22;20007;-92
2023/10/26 04:02:03;;;;;;;17.40;10.52;;;;;;;13.16;77.62;97859.00;6332023;22;20014;-93
2023/10/26 04:04:29;;;;;;;19.45;11.55;;;;;;;13.21;77.94;97849.81;6332267;22;20076;-92
2023/10/26 04:06:54;;;;;;;19.60;12.73;;;;;;;13.22;77.80;97851.41;6332181;22;20089;-92
2023/10/26 04:09:19;;;;;;;20.08;11.38;;;;;;;13.16;77.75;97848.03;6332435;22;20002;-92
2023/10/26 04:11:45;;;;;;;19.98;12.65;;;;;;;13.10;78.04;97854.84;6332446;22;20346;-93
2023/10/26 04:14:10;;;;;;;19.63;12.02;;;;;;;13.12;78.15;97858.03;6332002;22;20003;-92
2023/10/26 04:16:36;;;;;;;18.80;11.30;;;;;;;13.18;77.92;97856.72;6332339;22;20018;-93
2023/10/26 04:19:01;;;;;;;18.60;11.23;;;;;;;13.21;77.50;97854.47;6305044;22;20034;-92
2023/10/26 04:21:26;;;;;;;18.17;10.95;;;;;;;13.16;77.83;97850.00;6331921;22;20003;-92
2023/10/26 04:23:51;;;;;;;16.53;10.67;;;;;;;13.24;77.52;97851.09;6304967;22;20018;-93
2023/10/26 04:26:17;;;;;;;19.23;10.45;;;;;;;13.19;78.08;97863.00;6304812;22;20242;-94
2023/10/26 04:28:42;;;;;;;17.02;11.02;;;;;;;13.18;77.63;97855.94;6332244;22;20010;-93
2023/10/26 04:31:07;;;;;;;19.55;12.23;;;;;;;13.26;77.28;97851.56;6337874;22;20005;-92
2023/10/26 04:33:33;;;;;;;18.00;11.07;;;;;;;13.21;77.48;97854.47;6337451;22;20480;-93
2023/10/26 09:27:00;;;;;;;26.60;13.15;;;;;;;13.28;74.89;97921.22;6312810;22;20021;-93
2023/10/26 09:29:39;;;;;;;24.88;12.95;;;;;;;13.53;74.17;97920.63;6309232;22;20385;-93
2023/10/26 09:32:05;;;;;;;30.20;15.40;;;;;;;13.53;74.29;97920.63;6310334;22;20017;-93
2023/10/26 09:34:30;;;;;;;25.60;12.43;;;;;;;13.41;73.75;97927.63;6335537;22;20081;-92
2023/10/26 09:37:01;;;;;;;23.90;12.90;;;;;;;13.61;73.39;97921.75;6332629;22;20007;-94
2023/10/26 09:39:31;;;;;;;23.88;13.57;;;;;;;13.54;73.59;97934.06;6332099;22;20017;-93
2023/10/26 09:42:01;;;;;;;21.90;12.05;;;;;;;13.70;73.33;97921.72;6332067;22;20003;-94
2023/10/26 09:44:30;;;;;;;23.83;13.35;;;;;;;13.59;73.60;97924.81;6332544;22;20011;-93
2023/10/26 09:46:56;;;;;;;24.77;14.68;;;;;;;13.61;73.58;97924.50;6334360;22;20014;-93
2023/10/26 09:49:23;;;;;;;44.13;14.70;;;;;;;13.75;73.54;97929.75;6334502;22;20336;-94
2023/10/26 09:51:49;;;;;;;45.55;16.38;;;;;;;13.65;73.50;97923.50;6334311;22;20010;-94
2023/10/26 09:54:15;;;;;;;34.97;15.48;;;;;;;13.89;73.43;97922.06;6334016;22;20023;-93
2023/10/26 09:56:46;;;;;;;28.35;13.82;;;;;;;13.94;73.10;97921.09;6306888;22;20015;-93
2023/10/26 09:59:12;;;;;;;34.17;14.98;;;;;;;13.84;73.01;97910.50;6333653;22;20019;-92
2023/10/26 10:01:40;;;;;;;26.92;13.20;;;;;;;14.03;72.65;97901.84;6333919;22;20002;-93
2023/10/26 10:04:07;;;;;;;23.65;13.05;;;;;;;14.05;72.51;97907.00;6333471;22;20006;-93
2023/10/26 10:06:50;;;;;;;27.33;14.00;;;;;;;14.23;72.15;97918.63;6334045;22;19999;-93
2023/10/26 10:09:18;;;;;;;22.95;12.85;;;;;;;14.31;72.08;97920.50;6334232;22;20007;-94
2023/10/26 10:11:44;;;;;;;26.35;13.55;;;;;;;14.19;72.33;97923.16;6334244;22;20025;-93
2023/10/26 10:14:29;;;;;;;25.90;14.18;;;;;;;14.31;70.97;97925.16;6334146;22;20055;-94
2023/10/26 10:16:55;;;;;;;26.33;13.43;;;;;;;14.34;72.30;97925.31;6333059;22;20010;-93
2023/10/26 10:19:23;;;;;;;33.92;14.90;;;;;;;14.21;72.38;97920.91;6306017;22;20003;-92
2023/10/26 10:21:51;;;;;;;22.23;13.45;;;;;;;14.23;71.79;97919.44;6333707;22;20002;-94
2023/10/26 10:24:39;;;;;;;31.33;15.75;;;;;;;14.42;71.07;97920.09;6335783;22;20499;-95
2023/10/26 10:27:12;;;;;;;24.27;12.98;;;;;;;14.45;71.08;97912.00;6333525;22;20021;-95
2023/10/26 10:29:39;;;;;;;26.15;14.38;;;;;;;14.52;70.57;97900.47;6306609;22;20007;-96
2023/10/26 10:32:05;;;;;;;23.73;12.32;;;;;;;14.51;70.90;97901.63;6333713;22;20042;-95
2023/10/26 10:34:43;;;;;;;27.48;14.77;;;;;;;14.63;70.68;97898.13;6306498;22;20313;-94
2023/10/26 10:37:21;;;;;;;23.75;12.23;;;;;;;14.69;69.96;97901.44;6334028;22;20045;-95
2023/10/26 10:40:09;;;;;;;25.85;14.30;;;;;;;14.57;69.79;97900.28;6333935;22;20006;-96
2023/10/26 10:42:36;;;;;;;25.27;10.98;;;;;;;14.53;69.67;97904.81;6333380;22;20003;-95
2023/10/26 10:45:02;;;;;;;25.90;13.50;;;;;;;14.49;69.76;97898.41;6333611;22;20108;-96
2023/10/26 10:47:28;;;;;;;23.38;12.65;;;;;;;14.36;69.81;97895.63;6333450;22;20007;-94
2023/10/26 10:50:20;;;;;;;25.23;12.23;;;;;;;14.50;69.50;97894.53;6331395;22;20428;-94
2023/10/26 10:52:50;;;;;;;24.02;13.45;;;;;;;14.48;70.26;97896.81;6331990;22;20018;-95
2023/10/26 10:55:29;;;;;;;25.85;12.63;;;;;;;14.34;70.64;97886.94;6333533;22;20007;-94
2023/10/26 10:57:55;;;;;;;25.98;12.60;;;;;;;14.57;70.12;97888.50;6333613;22;20006;-96
2023/10/26 11:00:22;;;;;;;28.05;12.93;;;;;;;14.58;70.30;97885.41;6333445;22;20007;-94
2023/10/26 11:02:49;;;;;;;25.65;12.40;;;;;;;14.57;70.48;97889.31;6333595;22;20010;-93
2023/10/26 11:05:16;;;;;;;32.20;12.80;;;;;;;14.50;69.84;97897.28;6334248;22;20006;-94
2023/10/26 11:07:41;;;;;;;23.27;12.02;;;;;;;14.55;69.84;97891.59;6305813;22;20014;-95
2023/10/26 11:10:08;;;;;;;22.88;13.27;;;;;;;14.62;69.64;97892.97;6333007;22;20030;-96
2023/10/26 11:12:33;;;;;;;30.85;13.23;;;;;;;14.42;69.61;97885.25;6332928;22;20006;-95
2023/10/26 11:14:58;;;;;;;23.50;12.95;;;;;;;14.54;69.51;97889.97;6333484;22;20013;-94
2023/10/26 11:17:27;;;;;;;35.30;12.57;;;;;;;14.28;70.33;97888.25;6334141;22;20185;-94
2023/10/26 11:19:53;;;;;;;20.80;11.13;;;;;;;14.45;70.70;97878.28;6333904;22;20003;-95
2023/10/26 11:22:20;;;;;;;20.08;11.55;;;;;;;14.57;70.14;97861.06;6306002;22;20070;-95
2023/10/26 11:24:46;;;;;;;20.98;11.27;;;;;;;14.81;69.82;97865.81;6306345;22;20014;-95
2023/10/26 11:27:13;;;;;;;22.40;11.80;;;;;;;14.72;69.83;97854.16;6300869;22;20022;-94
2023/10/26 11:29:40;;;;;;;23.52;10.02;;;;;;;14.77;68.79;97850.38;6302554;22;20007;-95
2023/10/26 11:32:25;;;;;;;23.40;8.75;;;;;;;14.97;68.88;97845.97;6303564;22;20157;-96
2023/10/26 16:53:15;;;;;;;18.73;11.70;;;;;;;12.96;70.49;97756.59;6334580;22;20026;-95
2023/10/26 16:55:40;;;;;;;15.68;9.80;;;;;;;13.10;70.08;97750.88;6336246;22;20022;-95
2023/10/26 16:58:06;;;;;;;17.02;10.00;;;;;;;13.08;70.59;97753.94;6364227;22;20007;-96
2023/10/26 17:00:32;;;;;;;17.30;9.27;;;;;;;13.06;70.92;97755.41;6364133;22;20336;-96
2023/10/26 17:02:58;;;;;;;16.23;9.73;;;;;;;13.02;71.24;97754.47;6363677;22;20119;-96
2023/10/26 17:05:23;;;;;;;16.35;9.57;;;;;;;13.01;71.14;97753.69;6364206;22;20221;-96
2023/10/26 17:07:48;;;;;;;16.27;8.77;;;;;;;13.07;71.29;97762.50;6362807;22;19998;-96
2023/10/26 17:10:14;;;;;;;13.13;8.27;;;;;;;13.02;71.21;97755.28;6363750;22;20009;-96
2023/10/26 17:12:40;;;;;;;13.55;7.75;;;;;;;13.05;71.37;97762.03;6337365;22;20063;-96
2023/10/26 17:15:05;;;;;;;14.77;9.52;;;;;;;12.84;72.18;97765.50;6364887;22;20010;-96
2023/10/26 17:17:31;;;;;;;23.83;11.27;;;;;;;12.72;72.78;97756.06;6363728;22;20082;-96
2023/10/26 17:19:56;;;;;;;19.30;11.40;;;;;;;12.88;73.21;97754.69;6364057;22;20003;-94
2023/10/26 17:22:21;;;;;;;16.63;9.60;;;;;;;12.79;73.23;97747.38;6336742;22;20017;-93
2023/10/26 18:53:11;;;;;;;24.58;15.35;;;;;;;12.65;75.88;97720.22;6311393;22;20025;-96
2023/10/26 18:55:38;;;;;;;20.75;13.43;;;;;;;12.80;75.48;97713.41;6312929;22;20110;-96
2023/10/26 18:58:03;;;;;;;18.23;11.98;;;;;;;12.85;75.11;97712.44;6354233;22;20060;-96
2023/10/26 19:00:29;;;;;;;20.27;11.60;;;;;;;12.98;75.02;97707.06;6351140;22;20007;-96
2023/10/26 19:02:55;;;;;;;20.92;12.90;;;;;;;13.08;74.64;97714.84;6317647;22;20007;-95
2023/10/26 19:05:21;;;;;;;23.20;15.55;;;;;;;13.10;74.78;97729.00;6326524;22;20053;-96
2023/10/26 19:07:46;;;;;;;26.95;15.68;;;;;;;13.17;74.49;97723.81;6354737;22;20003;-96
2023/10/26 19:10:12;;;;;;;23.73;14.38;;;;;;;13.26;74.53;97720.22;6320768;22;20017;-96
2023/10/26 19:12:37;;;;;;;19.85;11.48;;;;;;;13.29;74.19;97712.13;6349532;22;20011;-96
2023/10/26 19:15:03;;;;;;;20.40;10.68;;;;;;;13.33;74.07;97712.28;6320923;22;20017;-96
2023/10/26 19:17:29;;;;;;;17.33;10.48;;;;;;;13.40;73.93;97714.47;6349223;22;20062;-96
2023/10/26 19:19:54;;;;;;;21.60;14.82;;;;;;;13.40;73.79;97711.75;6350161;22;20010;-96
2023/10/26 19:22:20;;;;;;;24.38;16.10;;;;;;;13.35;73.93;97704.53;6321855;22;20059;-96
2023/10/26 19:24:45;;;;;;;20.63;11.00;;;;;;;13.42;73.81;97704.78;6321547;22;20459;-96
2023/10/26 19:27:11;;;;;;;18.65;10.85;;;;;;;13.44;73.69;97712.69;6349245;22;20017;-96
2023/10/26 19:29:36;;;;;;;19.27;11.15;;;;;;;13.45;73.52;97717.00;6348038;22;20058;-96
2023/10/26 19:32:02;;;;;;;18.95;10.23;;;;;;;13.43;73.24;97722.00;6347444;22;20018;-96
2023/10/26 19:34:27;;;;;;;20.25;12.43;;;;;;;13.41;73.28;97716.88;6347389;22;20378;-96
2023/10/26 19:36:53;;;;;;;19.10;12.25;;;;;;;13.39;73.31;97716.41;6346743;22;20052;-96
2023/10/26 19:39:18;;;;;;;19.52;10.93;;;;;;;13.38;73.40;97717.53;6320345;22;20006;-96
2023/10/26 19:41:43;;;;;;;19.20;11.95;;;;;;;13.37;73.26;97713.22;6347207;22;20010;-96
2023/10/26 19:44:11;;;;;;;19.73;11.70;;;;;;;13.37;73.40;97715.94;6346727;22;20003;-96
2023/10/26 19:46:38;;;;;;;15.57;9.98;;;;;;;13.31;73.68;97720.00;6334469;22;20259;-95
2023/10/26 19:49:04;;;;;;;16.75;9.40;;;;;;;13.40;73.58;97726.22;6334463;22;20003;-96
2023/10/26 19:51:29;;;;;;;17.60;10.20;;;;;;;13.47;73.78;97724.88;6333686;22;20408;-96
2023/10/26 19:53:54;;;;;;;13.75;8.55;;;;;;;13.31;74.30;97722.75;6335042;22;20051;-96
2023/10/26 19:56:21;;;;;;;21.45;9.73;;;;;;;13.32;74.28;97710.69;6334724;22;20392;-96
2023/10/26 19:58:46;;;;;;;21.48;10.40;;;;;;;13.22;74.37;97708.34;6334455;22;20011;-96
2023/10/26 20:01:14;;;;;;;15.23;9.13;;;;;;;13.31;74.57;97700.84;6334719;22;20099;-96
2023/10/26 20:03:40;;;;;;;15.82;8.88;;;;;;;13.41;74.48;97697.72;6334666;22;20002;-96
2023/10/26 20:06:06;;;;;;;18.77;8.35;;;;;;;13.37;74.62;97699.53;6334026;22;20007;-96
2023/10/26 20:08:32;;;;;;;18.58;9.82;;;;;;;13.39;74.15;97713.66;6334869;22;20041;-96
2023/10/26 20:10:57;;;;;;;18.35;9.73;;;;;;;13.39;74.39;97702.72;6334901;22;20007;-96
2023/10/26 20:13:23;;;;;;;19.25;11.60;;;;;;;13.43;74.26;97714.59;6333961;22;20010;-96
2023/10/26 20:15:48;;;;;;;17.98;11.00;;;;;;;13.35;74.27;97704.53;6335215;22;20014;-96
2023/10/26 20:18:13;;;;;;;21.42;10.18;;;;;;;13.34;74.45;97711.16;6335089;22;20018;-96
2023/10/26 20:20:39;;;;;;;16.92;10.25;;;;;;;13.47;74.39;97716.66;6335213;22;20003;-96
2023/10/26 20:23:04;;;;;;;17.10;10.18;;;;;;;13.40;74.05;97726.22;6307506;22;20026;-96
2023/10/26 20:25:29;;;;;;;17.77;9.88;;;;;;;13.42;74.29;97723.94;6307622;22;20019;-96
2023/10/26 20:27:55;;;;;;;16.45;10.10;;;;;;;13.37;74.53;97724.16;6335482;22;20010;-96
2023/10/26 20:30:20;;;;;;;14.30;9.18;;;;;;;13.43;74.61;97724.75;6335001;22;20003;-96
2023/10/26 20:32:45;;;;;;;15.68;8.70;;;;;;;13.38;74.58;97724.97;6334947;22;20360;-96
2023/10/26 20:35:11;;;;;;;15.30;8.75;;;;;;;13.45;74.54;97711.53;6334758;22;20065;-96
2023/10/26 20:37:36;;;;;;;39.88;10.15;;;;;;;13.48;74.46;97710.88;6334553;22;20003;-96
2023/10/26 20:40:04;;;;;;;15.32;9.57;;;;;;;13.49;74.25;97712.47;6334635;22;20018;-96
2023/10/26 20:42:30;;;;;;;19.25;8.80;;;;;;;13.43;74.45;97702.84;6334328;22;19998;-96
2023/10/26 20:44:56;;;;;;;18.02;10.13;;;;;;;13.48;74.33;97707.34;6335761;22;20085;-96
2023/10/26 20:47:22;;;;;;;17.85;8.98;;;;;;;13.41;74.58;97700.47;6335126;22;20003;-96
2023/10/26 20:49:48;;;;;;;19.83;9.75;;;;;;;13.45;75.01;97703.31;6334813;22;20069;-96
2023/10/26 20:52:14;;;;;;;16.25;9.60;;;;;;;13.42;74.54;97696.56;6334478;22;20013;-96
2023/10/26 20:54:39;;;;;;;16.27;10.00;;;;;;;13.41;74.66;97700.47;6335932;22;20349;-95
2023/10/26 20:57:05;;;;;;;16.75;10.23;;;;;;;13.42;74.78;97701.28;6349448;22;20083;-96
2023/10/26 20:59:31;;;;;;;16.33;9.75;;;;;;;13.42;74.84;97699.31;6350759;22;19998;-96
2023/10/26 21:01:56;;;;;;;14.40;8.52;;;;;;;13.36;75.46;97700.66;6325213;22;20049;-96
2023/10/26 21:04:22;;;;;;;19.88;9.93;;;;;;;13.41;75.16;97699.66;6353289;22;20029;-96
2023/10/26 21:06:47;;;;;;;17.83;10.25;;;;;;;13.44;75.51;97693.53;6359666;22;19995;-96
2023/10/26 21:09:37;;;;;;;14.70;8.98;;;;;;;13.39;75.56;97694.50;6361563;22;20006;-96
2023/10/26 21:12:03;;;;;;;14.38;8.88;;;;;;;13.46;75.78;97688.50;6350565;22;20017;-96
2023/10/26 21:14:30;;;;;;;15.20;8.02;;;;;;;13.50;75.80;97685.91;6316303;22;20002;-96
2023/10/26 21:16:55;;;;;;;18.80;10.05;;;;;;;13.56;75.76;97681.03;6348678;22;20002;-96
2023/10/26 21:19:20;;;;;;;14.23;8.10;;;;;;;13.51;75.76;97682.00;6355689;22;20022;-96
2023/10/26 21:21:46;;;;;;;18.77;8.48;;;;;;;13.30;76.49;97680.13;6330075;22;20003;-96
2023/10/26 21:24:12;;;;;;;14.88;8.20;;;;;;;13.36;76.63;97669.75;6360170;22;20007;-96
2023/10/26 21:26:37;;;;;;;16.50;7.97;;;;;;;13.38;76.81;97673.75;6362851;22;20054;-96
2023/10/26 21:29:11;;;;;;;14.52;8.98;;;;;;;13.46;76.76;97668.53;6365017;22;20034;-96
2023/10/26 21:31:40;;;;;;;15.95;9.23;;;;;;;13.52;76.32;97661.72;6366024;22;20007;-96
2023/10/26 21:34:14;;;;;;;21.00;10.40;;;;;;;13.52;76.64;97661.72;6340555;22;20046;-96
2023/10/26 21:36:42;;;;;;;15.63;9.38;;;;;;;13.48;76.66;97666.28;6357619;22;19995;-96
2023/10/26 21:39:14;;;;;;;17.77;9.05;;;;;;;13.60;76.03;97663.63;6365451;22;20080;-96
2023/10/26 21:41:41;;;;;;;20.88;10.27;;;;;;;13.46;76.48;97658.41;6338620;22;19987;-96
2023/10/26 21:44:25;;;;;;;16.88;9.52;;;;;;;13.43;76.19;97654.41;6310990;22;20010;-96
2023/10/26 21:46:53;;;;;;;17.20;9.75;;;;;;;13.46;76.21;97652.13;6338352;22;20027;-96
2023/10/26 21:49:21;;;;;;;16.25;9.30;;;;;;;13.44;76.48;97644.25;6364219;22;20013;-96
2023/10/26 21:51:48;;;;;;;20.90;10.07;;;;;;;13.47;76.19;97643.56;6363080;22;20003;-96
2023/10/26 21:54:14;;;;;;;17.50;9.45;;;;;;;13.41;76.60;97637.50;6362474;22;20057;-96
2023/10/26 21:56:43;;;;;;;16.38;9.18;;;;;;;13.42;76.52;97641.84;6363556;22;20019;-96
2023/10/26 21:59:11;;;;;;;14.57;8.32;;;;;;;13.43;76.45;97639.91;6334113;22;20067;-96
2023/10/26 22:01:41;;;;;;;17.38;9.15;;;;;;;13.40;76.50;97644.09;6363740;22;20033;-96
2023/10/26 23:35:46;;;;;;;16.25;9.13;;;;;;;13.24;77.52;97566.53;6321667;22;20030;-95
2023/10/26 23:38:11;;;;;;;17.17;8.85;;;;;;;13.38;77.35;97556.06;6365193;22;20305;-94
2023/10/26 23:40:36;;;;;;;17.67;10.20;;;;;;;13.45;77.48;97561.00;6369001;22;20006;-94
2023/10/26 23:43:02;;;;;;;14.88;8.43;;;;;;;13.34;77.46;97552.44;6370131;22;20468;-95
2023/10/26 23:45:28;;;;;;;13.48;7.90;;;;;;;13.50;77.40;97549.03;6364691;22;20006;-94
2023/10/26 23:47:53;;;;;;;18.42;9.25;;;;;;;13.48;76.69;97554.06;6364551;22;20010;-95
2023/10/26 23:50:19;;;;;;;16.33;9.30;;;;;;;13.47;76.94;97549.69;6364266;22;20002;-96
2023/10/26 23:52:44;;;;;;;15.45;8.30;;;;;;;13.42;76.50;97548.00;6336308;22;20014;-96
2023/10/26 23:55:09;;;;;;;18.65;9.98;;;;;;;13.41;76.79;97544.47;6363999;22;20006;-95
2023/10/26 23:57:35;;;;;;;16.48;8.70;;;;;;;13.41;76.43;97547.19;6364228;22;20009;-95
